Time;durP1;ratioP1;P1;durP2;ratioP2;P2;SDS_P1;SDS_P2;PMS_P1;PMS_P2;Temp;Humidity;BMP_temperature;BMP_pressure;BME280_temperature;BME280_humidity;BME280_pressure;Samples;Min_cycle;Max_cycle;Signal;HPM_P1;HPM_P2
2022/06/28 00:00:28;;;;;;;0.00;0.00;;;27.50;75.10;;;;;;4925903;29;20052;-76
2022/06/28 00:02:54;;;;;;;0.00;0.00;;;27.40;75.30;;;;;;4958072;28;20020;-75
2022/06/28 00:05:20;;;;;;;0.00;0.00;;;27.30;75.40;;;;;;4960505;29;20024;-75
2022/06/28 00:07:46;;;;;;;0.00;0.00;;;27.30;75.50;;;;;;4959378;28;20024;-76
2022/06/28 00:10:14;;;;;;;0.00;0.00;;;27.20;75.50;;;;;;4928419;29;20047;-76
2022/06/28 00:12:40;;;;;;;0.00;0.00;;;27.20;75.50;;;;;;4928824;29;20314;-75
2022/06/28 00:17:54;;;;;;;0.00;0.00;;;27.00;76.00;;;;;;4928883;29;20076;-75
2022/06/28 00:20:20;;;;;;;0.00;0.00;;;27.00;76.30;;;;;;4929371;29;20071;-76
2022/06/28 00:22:46;;;;;;;0.00;0.00;;;26.90;76.60;;;;;;4959752;29;20357;-75
2022/06/28 00:25:12;;;;;;;0.00;0.00;;;26.90;77.10;;;;;;4928821;29;20031;-74
2022/06/28 00:27:39;;;;;;;0.00;0.00;;;26.80;77.50;;;;;;4928685;29;20031;-75
2022/06/28 00:30:05;;;;;;;0.00;0.00;;;26.70;78.00;;;;;;4959936;29;20031;-76
2022/06/28 00:32:32;;;;;;;0.00;0.00;;;26.60;78.30;;;;;;4929370;29;20024;-76
2022/06/28 00:34:58;;;;;;;0.00;0.00;;;26.50;78.70;;;;;;4959411;28;20024;-76
2022/06/28 00:37:24;;;;;;;0.00;0.00;;;26.40;79.20;;;;;;4927942;29;20032;-75
2022/06/28 00:39:51;;;;;;;0.00;0.00;;;26.30;79.60;;;;;;4928783;29;20223;-74
2022/06/28 00:42:17;;;;;;;0.00;0.00;;;26.20;80.70;;;;;;4927805;29;20099;-74
2022/06/28 00:44:43;;;;;;;0.00;0.00;;;26.10;80.40;;;;;;4926866;29;20028;-75
2022/06/28 00:47:09;;;;;;;0.00;0.00;;;26.00;80.70;;;;;;4959570;29;20064;-75
2022/06/28 00:49:40;;;;;;;0.00;0.00;;;25.90;81.10;;;;;;4943090;29;20079;-75
2022/06/28 00:52:06;;;;;;;0.00;0.00;;;25.80;81.80;;;;;;4929028;29;20083;-74
2022/06/28 00:54:32;;;;;;;0.00;0.00;;;25.80;82.50;;;;;;4958323;28;20040;-73
2022/06/28 00:56:58;;;;;;;0.00;0.00;;;25.60;83.20;;;;;;4928091;29;20048;-74
2022/06/28 00:59:24;;;;;;;0.00;0.00;;;25.50;84.20;;;;;;4958728;29;20024;-75
2022/06/28 01:01:50;;;;;;;0.00;0.00;;;25.40;84.20;;;;;;4927780;29;20078;-74
2022/06/28 01:04:15;;;;;;;0.00;0.00;;;25.30;84.80;;;;;;4927847;29;20024;-74
2022/06/28 01:06:42;;;;;;;0.00;0.00;;;25.20;85.00;;;;;;4958537;29;20164;-75
2022/06/28 01:09:08;;;;;;;0.00;0.00;;;25.10;85.10;;;;;;4959263;29;20031;-76
2022/06/28 01:11:34;;;;;;;0.00;0.00;;;25.00;84.90;;;;;;4928368;29;20165;-75
2022/06/28 01:14:06;;;;;;;0.00;0.00;;;25.00;85.40;;;;;;4926787;29;20024;-75
2022/06/28 01:16:32;;;;;;;0.00;0.00;;;25.00;86.00;;;;;;4928464;29;20207;-77
2022/06/28 01:18:58;;;;;;;0.00;0.00;;;24.90;85.70;;;;;;4927976;29;20035;-76
2022/06/28 01:21:27;;;;;;;0.00;0.00;;;24.80;85.80;;;;;;4927980;29;20153;-76
2022/06/28 01:23:54;;;;;;;0.00;0.00;;;24.80;86.00;;;;;;4957660;28;20023;-75
2022/06/28 01:26:20;;;;;;;0.00;0.00;;;24.80;86.20;;;;;;4958770;29;20020;-75
2022/06/28 01:28:47;;;;;;;0.00;0.00;;;24.80;86.40;;;;;;4957895;29;20099;-75
2022/06/28 01:31:13;;;;;;;0.00;0.00;;;24.70;86.50;;;;;;4928163;29;20223;-74
2022/06/28 01:33:40;;;;;;;0.00;0.00;;;24.70;87.00;;;;;;4957237;28;20111;-75
2022/06/28 01:36:07;;;;;;;0.00;0.00;;;24.60;87.70;;;;;;4927999;29;20101;-76
2022/06/28 01:38:34;;;;;;;0.00;0.00;;;24.70;88.70;;;;;;4958536;29;20031;-75
2022/06/28 01:41:01;;;;;;;0.00;0.00;;;24.70;89.90;;;;;;4927315;29;20035;-75
2022/06/28 01:43:28;;;;;;;0.00;0.00;;;24.60;90.10;;;;;;4927193;29;20024;-75
2022/06/28 01:45:54;;;;;;;0.00;0.00;;;24.50;90.40;;;;;;4926074;29;20162;-75
2022/06/28 01:48:20;;;;;;;0.00;0.00;;;24.50;90.70;;;;;;4958302;29;20066;-75
2022/06/28 01:50:47;;;;;;;0.00;0.00;;;24.40;91.00;;;;;;4957668;29;20036;-74
2022/06/28 01:53:13;;;;;;;0.00;0.00;;;24.30;91.50;;;;;;4958136;29;20026;-75
2022/06/28 01:55:40;;;;;;;0.00;0.00;;;24.20;91.70;;;;;;4925936;29;20137;-74
2022/06/28 01:58:06;;;;;;;0.00;0.00;;;24.30;92.20;;;;;;4957892;29;20024;-75
2022/06/28 02:00:32;;;;;;;0.00;0.00;;;24.20;92.00;;;;;;4957705;29;20028;-74
2022/06/28 02:02:58;;;;;;;0.00;0.00;;;24.20;92.50;;;;;;4926570;29;20302;-75
2022/06/28 02:05:24;;;;;;;0.00;0.00;;;24.20;92.40;;;;;;4926312;29;20303;-75
2022/06/28 02:07:52;;;;;;;0.00;0.00;;;24.20;92.80;;;;;;4926698;29;20024;-74
2022/06/28 02:10:18;;;;;;;0.00;0.00;;;24.10;92.30;;;;;;4923544;29;20095;-74
2022/06/28 02:12:45;;;;;;;0.00;0.00;;;24.10;92.50;;;;;;4939440;28;20214;-74
2022/06/28 02:15:11;;;;;;;0.00;0.00;;;24.00;92.60;;;;;;4938416;28;20035;-75
2022/06/28 02:17:37;;;;;;;0.00;0.00;;;24.00;92.70;;;;;;4906705;29;20095;-74
2022/06/28 02:20:03;;;;;;;0.00;0.00;;;24.00;92.80;;;;;;4915184;29;20411;-74
2022/06/28 02:22:29;;;;;;;0.00;0.00;;;24.00;93.00;;;;;;4915109;29;20068;-74
2022/06/28 02:24:55;;;;;;;0.00;0.00;;;24.00;93.00;;;;;;4934697;28;20066;-75
2022/06/28 02:27:21;;;;;;;0.00;0.00;;;24.00;93.10;;;;;;4901011;29;20211;-75
2022/06/28 02:29:47;;;;;;;0.00;0.00;;;24.00;93.40;;;;;;4904912;29;20280;-75
2022/06/28 02:32:12;;;;;;;0.00;0.00;;;24.00;93.50;;;;;;4904265;29;20025;-76
2022/06/28 02:40:27;;;;;;;0.00;0.00;;;24.00;94.00;;;;;;4926924;29;20074;-77
2022/06/28 02:42:57;;;;;;;0.00;0.00;;;24.00;94.00;;;;;;4957227;29;20024;-77
2022/06/28 02:45:25;;;;;;;0.00;0.00;;;24.00;94.50;;;;;;4926629;29;20035;-76
2022/06/28 02:47:50;;;;;;;0.00;0.00;;;24.00;94.50;;;;;;4956866;29;20027;-77
2022/06/28 02:50:16;;;;;;;0.00;0.00;;;24.00;94.50;;;;;;4956555;28;20384;-77
2022/06/28 02:52:42;;;;;;;0.00;0.00;;;24.10;94.70;;;;;;4956957;29;20064;-75
2022/06/28 02:55:09;;;;;;;0.00;0.00;;;24.10;94.40;;;;;;4956901;29;20227;-76
2022/06/28 02:57:36;;;;;;;0.00;0.00;;;24.10;94.70;;;;;;4956766;29;20028;-78
2022/06/28 03:00:07;;;;;;;0.00;0.00;;;24.20;94.80;;;;;;4925091;29;20032;-75
2022/06/28 03:02:35;;;;;;;0.00;0.00;;;24.20;95.20;;;;;;4926774;29;20020;-78
2022/06/28 03:05:06;;;;;;;0.00;0.00;;;24.20;95.40;;;;;;4957083;29;20024;-77
2022/06/28 03:07:31;;;;;;;0.00;0.00;;;24.20;96.10;;;;;;4927175;29;20028;-77
2022/06/28 03:09:57;;;;;;;0.00;0.00;;;24.20;96.30;;;;;;4925223;29;20036;-79
2022/06/28 03:12:23;;;;;;;0.00;0.00;;;24.20;96.90;;;;;;4926289;29;20023;-79
2022/06/28 03:14:48;;;;;;;0.00;0.00;;;24.20;97.30;;;;;;4956668;29;20043;-78
2022/06/28 03:17:14;;;;;;;0.00;0.00;;;24.20;97.60;;;;;;4926362;29;20254;-78
2022/06/28 03:19:40;;;;;;;0.00;0.00;;;24.10;96.90;;;;;;4925600;29;20050;-78
2022/06/28 03:22:06;;;;;;;0.00;0.00;;;24.00;96.60;;;;;;4956558;29;20084;-78
2022/06/28 03:24:31;;;;;;;0.00;0.00;;;24.00;96.60;;;;;;4926631;29;20031;-79
2022/06/28 03:26:57;;;;;;;0.00;0.00;;;24.00;96.60;;;;;;4926207;29;20029;-78
2022/06/28 03:29:23;;;;;;;0.00;0.00;;;24.00;97.50;;;;;;4925737;29;20036;-78
2022/06/28 03:31:49;;;;;;;0.00;0.00;;;24.00;97.70;;;;;;4926401;29;20326;-77
2022/06/28 03:34:15;;;;;;;0.00;0.00;;;24.00;97.70;;;;;;4957801;29;20020;-78
2022/06/28 03:36:41;;;;;;;0.00;0.00;;;24.00;97.50;;;;;;4958483;28;20063;-77
2022/06/28 03:39:07;;;;;;;0.00;0.00;;;24.00;97.10;;;;;;4959606;28;20024;-76
2022/06/28 03:41:32;;;;;;;0.00;0.00;;;23.90;96.40;;;;;;4960338;29;20091;-78
2022/06/28 03:43:58;;;;;;;0.00;0.00;;;23.90;95.90;;;;;;4929375;29;20016;-77
2022/06/28 03:46:24;;;;;;;0.00;0.00;;;23.90;96.00;;;;;;4929633;29;20112;-77
2022/06/28 03:48:50;;;;;;;0.00;0.00;;;23.90;96.20;;;;;;4959452;28;20027;-77
2022/06/28 03:51:16;;;;;;;0.00;0.00;;;23.90;96.30;;;;;;4929697;29;20038;-78
2022/06/28 03:53:42;;;;;;;0.00;0.00;;;23.90;96.30;;;;;;4930006;29;20024;-78
2022/06/28 03:56:08;;;;;;;0.00;0.00;;;23.90;96.30;;;;;;4959727;28;20200;-77
2022/06/28 03:58:34;;;;;;;0.00;0.00;;;23.90;96.00;;;;;;4929314;29;20083;-77
2022/06/28 04:01:00;;;;;;;0.00;0.00;;;23.90;96.30;;;;;;4959345;28;20236;-77
2022/06/28 04:03:26;;;;;;;0.00;0.00;;;23.90;96.00;;;;;;4929714;29;20016;-79
2022/06/28 04:05:51;;;;;;;0.00;0.00;;;23.90;96.20;;;;;;4928828;29;20028;-77
2022/06/28 04:08:17;;;;;;;0.00;0.00;;;23.80;96.20;;;;;;4960101;29;20100;-76
2022/06/28 04:10:44;;;;;;;0.00;0.00;;;23.80;96.20;;;;;;4928737;29;20036;-77
2022/06/28 04:13:09;;;;;;;0.00;0.00;;;23.80;96.50;;;;;;4959743;29;20031;-78
2022/06/28 04:15:37;;;;;;;0.00;0.00;;;23.70;96.80;;;;;;4960332;29;20431;-77
2022/06/28 04:18:03;;;;;;;;;;;23.70;97.10;;;;;;4928494;29;20307;-78
2022/06/28 04:20:29;;;;;;;0.00;0.00;;;23.60;97.20;;;;;;4929186;29;19903;-79
2022/06/28 04:22:55;;;;;;;0.00;0.00;;;23.60;97.20;;;;;;4929068;29;20047;-75
2022/06/28 04:25:20;;;;;;;0.00;0.00;;;23.60;97.30;;;;;;4929226;29;20024;-76
2022/06/28 04:27:46;;;;;;;0.00;0.00;;;23.50;97.40;;;;;;4953467;29;20072;-76
2022/06/28 04:30:12;;;;;;;0.00;0.00;;;23.50;97.40;;;;;;4909235;29;20395;-75
2022/06/28 04:32:38;;;;;;;0.00;0.00;;;23.40;97.50;;;;;;4937111;28;20027;-76
2022/06/28 04:35:05;;;;;;;0.00;0.00;;;23.40;97.40;;;;;;4919864;29;20028;-78
2022/06/28 04:37:30;;;;;;;0.00;0.00;;;23.30;97.40;;;;;;4942021;29;20192;-78
2022/06/28 04:39:56;;;;;;;0.00;0.00;;;23.40;97.70;;;;;;4926895;29;20042;-76
2022/06/28 04:42:22;;;;;;;0.00;0.00;;;23.40;97.70;;;;;;4959745;29;20079;-76
2022/06/28 04:44:47;;;;;;;0.00;0.00;;;23.40;97.60;;;;;;4928649;29;20307;-75
2022/06/28 04:47:13;;;;;;;0.00;0.00;;;23.40;97.50;;;;;;4928716;29;20079;-78
2022/06/28 04:49:40;;;;;;;0.00;0.00;;;23.40;97.20;;;;;;4958577;28;20107;-78
2022/06/28 04:52:06;;;;;;;0.00;0.00;;;23.40;97.00;;;;;;4928727;29;20047;-76
2022/06/28 04:54:32;;;;;;;0.00;0.00;;;23.30;96.90;;;;;;4928735;29;20118;-78
2022/06/28 04:56:57;;;;;;;0.00;0.00;;;23.30;97.10;;;;;;4958111;29;20036;-77
2022/06/28 04:59:23;;;;;;;0.00;0.00;;;23.30;97.10;;;;;;4957318;28;20031;-78
2022/06/28 05:01:48;;;;;;;0.00;0.00;;;23.20;97.10;;;;;;4952821;28;20024;-76
2022/06/28 05:04:14;;;;;;;0.00;0.00;;;23.20;97.50;;;;;;4927398;29;20028;-77
2022/06/28 05:06:40;;;;;;;0.00;0.00;;;23.20;97.50;;;;;;4928525;29;20194;-78
2022/06/28 05:09:06;;;;;;;0.00;0.00;;;23.20;97.60;;;;;;4957920;28;20254;-74
2022/06/28 05:11:31;;;;;;;0.00;0.00;;;23.20;97.70;;;;;;4928484;29;20028;-75
2022/06/28 05:13:58;;;;;;;0.00;0.00;;;23.20;97.60;;;;;;4927931;29;20039;-76
2022/06/28 05:16:24;;;;;;;0.00;0.00;;;23.20;97.40;;;;;;4926987;29;20292;-76
2022/06/28 05:18:49;;;;;;;0.00;0.00;;;23.30;97.40;;;;;;4927480;29;20028;-76
2022/06/28 05:21:15;;;;;;;0.00;0.00;;;23.30;97.10;;;;;;4958450;29;20329;-76
2022/06/28 05:23:41;;;;;;;0.00;0.00;;;23.30;97.10;;;;;;4958951;29;20321;-77
2022/06/28 05:26:06;;;;;;;0.00;0.00;;;23.40;97.10;;;;;;4927609;29;20082;-80
2022/06/28 05:28:32;;;;;;;0.00;0.00;;;23.40;96.80;;;;;;4926822;29;20172;-75
2022/06/28 05:30:57;;;;;;;0.00;0.00;;;23.50;96.70;;;;;;4926758;29;20063;-75
2022/06/28 05:33:23;;;;;;;0.00;0.00;;;23.50;96.50;;;;;;4927648;29;20276;-75
2022/06/28 05:35:49;;;;;;;0.00;0.00;;;23.50;96.30;;;;;;4957439;29;20024;-76
2022/06/28 05:38:15;;;;;;;0.00;0.00;;;23.50;96.10;;;;;;4927350;29;20016;-76
2022/06/28 05:40:41;;;;;;;0.00;0.00;;;23.60;96.20;;;;;;4957610;28;20219;-73
2022/06/28 05:43:07;;;;;;;0.00;0.00;;;23.70;96.20;;;;;;4926236;29;20024;-75
2022/06/28 05:45:33;;;;;;;0.00;0.00;;;23.80;96.70;;;;;;4925697;29;20028;-72
2022/06/28 05:47:58;;;;;;;0.00;0.00;;;23.90;96.70;;;;;;4908878;29;20334;-74
2022/06/28 05:50:24;;;;;;;0.00;0.00;;;24.00;96.10;;;;;;4914476;29;20153;-75
2022/06/28 05:52:50;;;;;;;0.00;0.00;;;24.10;95.70;;;;;;4901702;29;20029;-75
2022/06/28 05:55:15;;;;;;;0.00;0.00;;;24.20;95.60;;;;;;4901401;29;20040;-75
2022/06/28 05:57:41;;;;;;;0.00;0.00;;;24.30;95.30;;;;;;4902818;29;20047;-76
2022/06/28 06:00:07;;;;;;;0.00;0.00;;;24.30;95.20;;;;;;4905206;29;20028;-73
2022/06/28 06:02:33;;;;;;;0.00;0.00;;;24.40;94.50;;;;;;4905334;29;20040;-75
2022/06/28 06:04:59;;;;;;;0.00;0.00;;;24.40;94.80;;;;;;4909899;29;20035;-74
2022/06/28 06:07:25;;;;;;;0.00;0.00;;;24.40;94.10;;;;;;4903538;29;20029;-73
2022/06/28 06:09:51;;;;;;;0.00;0.00;;;24.40;94.80;;;;;;4935282;29;20216;-76
2022/06/28 06:12:17;;;;;;;0.00;0.00;;;24.50;94.30;;;;;;4930696;29;20028;-75
2022/06/28 06:14:43;;;;;;;0.00;0.00;;;24.80;94.50;;;;;;4957113;29;20024;-76
2022/06/28 06:17:09;;;;;;;0.00;0.00;;;25.20;94.40;;;;;;4926070;29;20026;-76
2022/06/28 06:19:34;;;;;;;0.00;0.00;;;25.70;93.60;;;;;;4926870;29;20299;-75
2022/06/28 06:22:00;;;;;;;0.00;0.00;;;26.40;92.30;;;;;;4926394;29;20016;-73
2022/06/28 06:24:26;;;;;;;0.00;0.00;;;27.10;91.00;;;;;;4957109;28;20027;-74
2022/06/28 06:26:51;;;;;;;0.00;0.00;;;27.50;87.90;;;;;;4958248;29;20186;-74
2022/06/28 06:29:17;;;;;;;0.00;0.00;;;27.90;88.50;;;;;;4957216;29;20036;-73
2022/06/28 06:31:43;;;;;;;0.00;0.00;;;28.20;85.00;;;;;;4957145;29;20027;-73
2022/06/28 06:34:09;;;;;;;0.00;0.00;;;28.70;84.20;;;;;;4925402;29;20020;-73
2022/06/28 06:36:35;;;;;;;0.00;0.00;;;29.10;81.20;;;;;;4936265;29;20083;-72
2022/06/28 06:39:01;;;;;;;0.00;0.00;;;29.40;79.80;;;;;;4937003;29;20027;-70
2022/06/28 06:41:27;;;;;;;0.00;0.00;;;29.40;78.50;;;;;;4935489;29;20183;-72
2022/06/28 06:43:53;;;;;;;0.00;0.00;;;29.40;77.80;;;;;;4933780;29;20071;-73
2022/06/28 06:46:19;;;;;;;0.00;0.00;;;29.50;78.40;;;;;;4934633;29;20291;-73
2022/06/28 06:48:45;;;;;;;0.00;0.00;;;29.60;76.60;;;;;;4937489;29;20351;-72
2022/06/28 06:51:11;;;;;;;0.00;0.00;;;29.80;76.20;;;;;;4931826;29;20050;-74
2022/06/28 06:53:36;;;;;;;0.00;0.00;;;29.90;75.70;;;;;;4934819;29;20028;-73
2022/06/28 06:56:02;;;;;;;0.00;0.00;;;29.90;75.10;;;;;;4933202;29;20106;-72
2022/06/28 06:58:28;;;;;;;0.00;0.00;;;30.10;74.30;;;;;;4935630;29;20075;-71
2022/06/28 07:00:54;;;;;;;0.00;0.00;;;30.20;74.10;;;;;;4933994;29;20046;-73
2022/06/28 07:03:20;;;;;;;0.00;0.00;;;30.40;73.20;;;;;;4930951;29;20048;-73
2022/06/28 07:05:46;;;;;;;0.00;0.00;;;30.60;73.20;;;;;;4936496;29;20024;-73
2022/06/28 07:08:11;;;;;;;0.00;0.00;;;30.90;72.10;;;;;;4933720;29;20023;-72
2022/06/28 07:10:37;;;;;;;0.00;0.00;;;30.90;71.70;;;;;;4938253;29;20062;-73
2022/06/28 07:13:03;;;;;;;0.00;0.00;;;31.10;71.30;;;;;;4934845;29;20083;-72
2022/06/28 07:15:28;;;;;;;0.00;0.00;;;31.30;70.80;;;;;;4930586;29;20020;-73
2022/06/28 07:17:54;;;;;;;0.00;0.00;;;31.70;70.10;;;;;;4932067;29;20019;-72
2022/06/28 07:20:20;;;;;;;0.00;0.00;;;31.90;68.60;;;;;;4930924;29;20024;-73
2022/06/28 07:22:45;;;;;;;0.00;0.00;;;32.10;68.00;;;;;;4934451;29;20024;-74
2022/06/28 07:25:13;;;;;;;0.00;0.00;;;31.70;67.80;;;;;;4932198;29;20024;-72
2022/06/28 07:27:39;;;;;;;0.00;0.00;;;31.10;68.30;;;;;;4925663;29;20028;-76
2022/06/28 07:30:05;;;;;;;0.00;0.00;;;30.20;70.00;;;;;;4912310;29;20020;-76
2022/06/28 07:32:31;;;;;;;0.00;0.00;;;29.40;72.00;;;;;;4921758;29;20074;-76
2022/06/28 07:34:56;;;;;;;0.00;0.00;;;28.70;74.30;;;;;;4922616;29;20035;-79
2022/06/28 07:37:22;;;;;;;0.00;0.00;;;28.10;76.20;;;;;;4905170;29;20055;-79
2022/06/28 07:39:48;;;;;;;0.00;0.00;;;27.70;77.60;;;;;;4920517;29;20062;-77
2022/06/28 07:42:14;;;;;;;0.00;0.00;;;27.30;78.70;;;;;;4924235;29;20028;-78
2022/06/28 07:44:39;;;;;;;0.00;0.00;;;27.00;79.60;;;;;;4921192;29;20285;-78
2022/06/28 07:47:05;;;;;;;0.00;0.00;;;26.80;80.80;;;;;;4920203;29;20020;-74
2022/06/28 07:52:36;;;;;;;0.00;0.00;;;26.80;80.50;;;;;;4901294;29;20473;-77
2022/06/28 07:55:03;;;;;;;0.00;0.00;;;26.90;80.70;;;;;;4951226;28;20048;-80
2022/06/28 07:57:29;;;;;;;0.00;0.00;;;27.00;80.20;;;;;;4923054;29;20048;-77
2022/06/28 07:59:55;;;;;;;0.00;0.00;;;27.10;80.20;;;;;;4921712;29;20035;-77
2022/06/28 08:02:21;;;;;;;0.00;0.00;;;27.40;80.10;;;;;;4921890;29;20036;-78
2022/06/28 08:04:47;;;;;;;0.00;0.00;;;27.80;79.80;;;;;;4921546;29;20052;-77
2022/06/28 08:07:13;;;;;;;0.00;0.00;;;28.40;78.40;;;;;;4952064;29;20028;-77
2022/06/28 08:09:39;;;;;;;0.00;0.00;;;29.30;76.70;;;;;;4919941;29;20035;-78
2022/06/28 08:12:05;;;;;;;0.00;0.00;;;30.30;72.70;;;;;;4921318;29;20036;-72
2022/06/28 08:14:31;;;;;;;0.00;0.00;;;30.90;70.60;;;;;;4919928;29;20024;-74
2022/06/28 08:16:57;;;;;;;0.00;0.00;;;31.40;69.50;;;;;;4920504;29;20206;-74
2022/06/28 08:19:23;;;;;;;0.00;0.00;;;31.80;67.60;;;;;;4915155;29;20605;-74
2022/06/28 08:21:50;;;;;;;0.00;0.00;;;32.00;66.60;;;;;;4929229;29;20024;-78
2022/06/28 08:24:16;;;;;;;0.00;0.00;;;32.10;66.20;;;;;;4950752;28;20072;-78
2022/06/28 08:26:42;;;;;;;0.00;0.00;;;32.70;66.00;;;;;;4922769;29;20099;-77
2022/06/28 08:29:09;;;;;;;0.00;0.00;;;33.50;64.60;;;;;;4949945;29;20024;-77
2022/06/28 08:31:35;;;;;;;0.00;0.00;;;33.90;62.90;;;;;;4922890;29;20028;-76
2022/06/28 08:34:00;;;;;;;0.00;0.00;;;34.40;62.20;;;;;;4925109;29;20089;-75
2022/06/28 08:36:26;;;;;;;0.00;0.00;;;34.90;60.50;;;;;;4924348;29;20027;-75
2022/06/28 08:38:52;;;;;;;0.00;0.00;;;34.70;59.70;;;;;;4945599;29;20021;-76
2022/06/28 08:41:17;;;;;;;0.00;0.00;;;34.60;60.30;;;;;;4923963;29;20028;-75
2022/06/28 08:43:43;;;;;;;0.00;0.00;;;34.70;60.10;;;;;;4923609;29;20020;-76
2022/06/28 08:46:09;;;;;;;0.00;0.00;;;35.10;59.10;;;;;;4924097;29;20084;-78
2022/06/28 08:48:43;;;;;;;0.00;0.00;;;35.50;59.30;;;;;;4922756;29;20342;-76
2022/06/28 08:51:10;;;;;;;0.00;0.00;;;36.00;57.50;;;;;;4921768;29;20080;-76
2022/06/28 08:53:38;;;;;;;0.00;0.00;;;35.60;57.50;;;;;;4923720;29;20024;-75
2022/06/28 08:56:06;;;;;;;0.00;0.00;;;35.70;58.40;;;;;;4923697;29;20207;-76
2022/06/28 08:58:33;;;;;;;0.00;0.00;;;36.10;57.60;;;;;;4923105;29;20024;-76
2022/06/28 09:00:59;;;;;;;0.00;0.00;;;37.00;56.80;;;;;;4923642;29;20052;-74
2022/06/28 09:03:25;;;;;;;0.00;0.00;;;37.30;55.70;;;;;;4922266;29;20326;-76
2022/06/28 09:05:51;;;;;;;0.00;0.00;;;38.00;54.50;;;;;;4923576;29;20043;-76
2022/06/28 09:08:17;;;;;;;0.00;0.00;;;38.00;54.00;;;;;;4923154;29;20055;-75
2022/06/28 09:10:44;;;;;;;0.00;0.00;;;37.60;53.40;;;;;;4923453;29;20036;-76
2022/06/28 09:13:12;;;;;;;0.00;0.00;;;38.10;53.60;;;;;;4921511;29;20192;-73
2022/06/28 09:15:45;;;;;;;0.00;0.00;;;38.00;54.10;;;;;;4923131;29;20091;-76
2022/06/28 09:18:11;;;;;;;0.00;0.00;;;38.50;53.30;;;;;;4938662;29;20295;-74
2022/06/28 09:20:38;;;;;;;0.00;0.00;;;38.40;52.60;;;;;;4923062;29;20034;-75
2022/06/28 09:23:19;;;;;;;0.00;0.00;;;38.20;52.90;;;;;;4923045;29;20035;-75
2022/06/28 09:25:45;;;;;;;0.00;0.00;;;38.10;53.80;;;;;;4921816;29;20028;-75
2022/06/28 09:28:10;;;;;;;0.00;0.00;;;38.70;52.80;;;;;;4923351;29;20318;-74
2022/06/28 09:30:37;;;;;;;0.00;0.00;;;39.30;52.90;;;;;;4922121;29;20303;-75
2022/06/28 09:33:03;;;;;;;;;;;40.40;51.00;;;;;;4923845;29;20291;-75
2022/06/28 09:35:29;;;;;;;0.00;0.00;;;40.10;50.10;;;;;;4919797;29;19982;-76
2022/06/28 09:37:54;;;;;;;0.00;0.00;;;39.50;50.30;;;;;;4924012;29;20303;-76
2022/06/28 09:40:22;;;;;;;0.00;0.00;;;39.30;50.90;;;;;;4922129;29;20115;-75
2022/06/28 09:43:14;;;;;;;0.00;0.00;;;39.00;51.20;;;;;;4923602;29;20291;-76
2022/06/28 09:45:46;;;;;;;0.00;0.00;;;38.20;51.40;;;;;;4920742;29;20031;-77
2022/06/28 09:48:19;;;;;;;0.00;0.00;;;38.20;53.10;;;;;;4946655;29;20044;-77
2022/06/28 09:50:45;;;;;;;0.00;0.00;;;38.00;52.20;;;;;;4924909;29;20080;-78
2022/06/28 09:53:19;;;;;;;0.00;0.00;;;37.40;52.70;;;;;;4924377;29;20218;-77
2022/06/28 09:55:45;;;;;;;0.00;0.00;;;37.70;53.20;;;;;;4921296;29;20083;-75
2022/06/28 09:58:11;;;;;;;0.00;0.00;;;38.80;52.80;;;;;;4923451;29;20047;-76
2022/06/28 10:00:39;;;;;;;0.00;0.00;;;39.10;51.60;;;;;;4924511;29;20058;-76
2022/06/28 10:03:05;;;;;;;0.00;0.00;;;39.40;50.70;;;;;;4924650;29;20264;-77
2022/06/28 10:05:32;;;;;;;0.00;0.00;;;38.90;50.80;;;;;;4923987;29;20067;-74
2022/06/28 10:07:58;;;;;;;;;;;38.60;52.30;;;;;;4923270;29;20032;-75
2022/06/28 10:10:24;;;;;;;;;;;39.10;50.50;;;;;;4922646;29;19942;-74
2022/06/28 10:15:37;;;;;;;0.00;0.00;;;37.60;51.60;;;;;;4923680;29;19910;-76
2022/06/28 10:18:19;;;;;;;0.00;0.00;;;36.60;52.50;;;;;;4924677;29;20044;-76
2022/06/28 10:20:44;;;;;;;0.00;0.00;;;35.70;53.70;;;;;;4938708;29;20032;-75
2022/06/28 10:23:27;;;;;;;0.00;0.00;;;35.20;55.30;;;;;;4924036;29;20266;-77
2022/06/28 10:26:14;;;;;;;0.00;0.00;;;35.30;56.50;;;;;;4921385;29;20031;-79
2022/06/28 10:28:59;;;;;;;0.00;0.00;;;36.70;55.10;;;;;;4922323;29;20206;-76
2022/06/28 10:31:24;;;;;;;0.00;0.00;;;38.40;53.40;;;;;;4922440;29;20024;-74
2022/06/28 10:33:52;;;;;;;0.00;0.00;;;40.10;52.00;;;;;;4923742;29;20042;-75
2022/06/28 10:36:20;;;;;;;0.00;0.00;;;41.50;49.60;;;;;;4921264;29;20036;-75
2022/06/28 10:39:07;;;;;;;0.00;0.00;;;41.80;48.10;;;;;;4924074;29;20043;-83
2022/06/28 10:41:42;;;;;;;0.00;0.00;;;41.60;47.10;;;;;;4922495;29;20314;-77
2022/06/28 10:44:18;;;;;;;0.00;0.00;;;41.10;48.50;;;;;;4920457;29;20362;-79
2022/06/28 10:47:03;;;;;;;;;;;41.20;48.50;;;;;;4922535;29;20322;-75
2022/06/28 10:49:48;;;;;;;0.00;0.00;;;42.10;48.70;;;;;;4923205;29;19958;-75
2022/06/28 10:52:18;;;;;;;0.00;0.00;;;42.80;46.60;;;;;;4936144;29;20068;-74
2022/06/28 10:54:52;;;;;;;0.00;0.00;;;43.10;45.60;;;;;;4937224;29;20219;-75
2022/06/28 10:57:26;;;;;;;0.00;0.00;;;43.80;44.70;;;;;;4921750;29;20032;-76
2022/06/28 10:59:55;;;;;;;0.00;0.00;;;44.30;44.00;;;;;;4922593;29;20024;-75
2022/06/28 11:02:22;;;;;;;0.00;0.00;;;44.70;43.60;;;;;;4921861;29;20262;-76
2022/06/28 11:05:09;;;;;;;0.00;0.00;;;44.90;43.20;;;;;;4922319;29;20216;-76
2022/06/28 11:07:37;;;;;;;0.00;0.00;;;46.00;44.30;;;;;;4918636;29;20058;-74
2022/06/28 11:10:05;;;;;;;0.00;0.00;;;46.10;43.10;;;;;;4921963;29;20040;-73
2022/06/28 11:12:37;;;;;;;0.00;0.00;;;45.00;42.00;;;;;;4906152;29;20036;-75
2022/06/28 11:15:11;;;;;;;0.00;0.00;;;43.90;43.60;;;;;;4922357;29;20262;-76
2022/06/28 11:17:42;;;;;;;0.00;0.00;;;43.80;43.80;;;;;;4917085;29;20232;-75
2022/06/28 11:20:20;;;;;;;0.00;0.00;;;42.80;43.60;;;;;;4920397;29;20059;-75
2022/06/28 11:22:49;;;;;;;0.00;0.00;;;42.10;44.50;;;;;;4921864;29;20044;-74
2022/06/28 11:27:19;;;;;;;0.00;0.00;;;41.80;46.00;;;;;;4921301;29;20024;-73
2022/06/28 11:28:15;;;;;;;0.00;0.00;;;42.00;46.20;;;;;;4920313;29;20060;-73
2022/06/28 11:30:42;;;;;;;0.00;0.00;;;41.30;45.50;;;;;;4921464;29;20032;-73
2022/06/28 11:33:08;;;;;;;0.00;0.00;;;41.00;46.00;;;;;;4921778;29;20092;-73
2022/06/28 11:35:34;;;;;;;0.00;0.00;;;41.30;45.40;;;;;;4921140;29;20028;-74
2022/06/28 11:38:02;;;;;;;0.00;0.00;;;40.70;46.40;;;;;;4920810;29;20032;-74
2022/06/28 11:40:38;;;;;;;0.00;0.00;;;40.00;46.50;;;;;;4917861;29;20056;-75
2022/06/28 11:43:04;;;;;;;;;;;39.00;47.40;;;;;;4948836;29;20103;-74
2022/06/28 11:45:31;;;;;;;0.00;0.00;;;38.00;48.40;;;;;;4952003;29;19927;-74
2022/06/28 11:48:31;;;;;;;0.00;0.00;;;37.50;49.50;;;;;;4941373;28;20355;-73
2022/06/28 11:50:59;;;;;;;0.00;0.00;;;36.90;50.30;;;;;;4917609;29;20307;-74
2022/06/28 11:53:26;;;;;;;0.00;0.00;;;36.30;51.00;;;;;;4921394;29;20020;-77
2022/06/28 11:55:53;;;;;;;0.00;0.00;;;35.80;51.70;;;;;;4921624;29;20044;-75
2022/06/28 11:58:22;;;;;;;0.00;0.00;;;35.60;52.60;;;;;;4923210;29;20040;-74
2022/06/28 12:01:05;;;;;;;0.00;0.00;;;35.20;53.10;;;;;;4926222;29;20039;-75
2022/06/28 12:03:32;;;;;;;0.00;0.00;;;34.80;54.00;;;;;;4926225;29;20365;-74
2022/06/28 12:06:00;;;;;;;0.00;0.00;;;34.60;54.50;;;;;;4926449;29;20291;-74
2022/06/28 12:08:45;;;;;;;0.00;0.00;;;34.50;55.20;;;;;;4928132;29;20100;-74
2022/06/28 12:11:28;;;;;;;0.00;0.00;;;34.10;55.60;;;;;;4924257;29;20040;-76
2022/06/28 12:13:56;;;;;;;0.00;0.00;;;33.90;55.50;;;;;;4926967;29;20299;-77
2022/06/28 12:16:22;;;;;;;0.00;0.00;;;33.60;55.90;;;;;;4927559;29;20032;-75
2022/06/28 12:18:55;;;;;;;0.00;0.00;;;33.50;56.10;;;;;;4950785;29;20394;-76
2022/06/28 12:21:21;;;;;;;0.00;0.00;;;33.50;56.10;;;;;;4923731;29;20167;-75
2022/06/28 12:23:52;;;;;;;0.00;0.00;;;33.40;56.10;;;;;;4926094;29;20221;-76
2022/06/28 12:26:18;;;;;;;0.00;0.00;;;33.20;56.40;;;;;;4951553;29;20103;-74
2022/06/28 12:28:44;;;;;;;0.00;0.00;;;33.00;56.70;;;;;;4926802;29;20019;-75
2022/06/28 12:31:10;;;;;;;0.00;0.00;;;32.90;56.90;;;;;;4953540;28;20063;-75
2022/06/28 12:33:36;;;;;;;0.00;0.00;;;32.80;57.40;;;;;;4924652;29;20056;-75
2022/06/28 12:36:02;;;;;;;0.00;0.00;;;32.70;58.00;;;;;;4925069;29;20125;-75
2022/06/28 12:38:27;;;;;;;0.00;0.00;;;32.70;57.70;;;;;;4930597;29;20028;-75
2022/06/28 12:40:53;;;;;;;0.00;0.00;;;32.60;57.80;;;;;;4925827;29;20027;-77
2022/06/28 12:43:19;;;;;;;0.00;0.00;;;32.50;57.90;;;;;;4956146;28;20190;-74
2022/06/28 12:45:44;;;;;;;0.00;0.00;;;32.50;57.70;;;;;;4928980;29;20031;-76
2022/06/28 12:48:10;;;;;;;0.00;0.00;;;32.50;58.20;;;;;;4926878;29;20326;-77
2022/06/28 12:50:36;;;;;;;0.00;0.00;;;32.40;57.80;;;;;;4925600;29;20295;-74
2022/06/28 12:53:02;;;;;;;0.00;0.00;;;32.40;57.80;;;;;;4925679;29;20035;-75
2022/06/28 12:55:27;;;;;;;0.00;0.00;;;32.30;57.50;;;;;;4923701;29;20040;-76
2022/06/28 12:57:53;;;;;;;0.00;0.00;;;32.20;57.80;;;;;;4924935;29;20083;-76
2022/06/28 13:00:19;;;;;;;0.00;0.00;;;32.00;57.30;;;;;;4926165;29;20032;-75
2022/06/28 13:02:45;;;;;;;0.00;0.00;;;32.00;57.80;;;;;;4924564;29;20098;-76